Time;durP1;ratioP1;P1;durP2;ratioP2;P2;SDS_P1;SDS_P2;PMS_P1;PMS_P2;Temp;Humidity;BMP_temperature;BMP_pressure;BME280_temperature;BME280_humidity;BME280_pressure;Samples;Min_cycle;Max_cycle;Signal;HPM_P1;HPM_P2
2024/04/13 00:01:08;;;;;;;5.80;4.70;;;14.40;62.20;;;;;;5440730;26;20501;-76
2024/04/13 00:03:41;;;;;;;4.80;4.40;;;14.40;62.40;;;;;;5439632;26;20527;-75
2024/04/13 00:06:09;;;;;;;4.97;4.47;;;14.40;61.80;;;;;;5436151;26;20474;-76
2024/04/13 00:08:39;;;;;;;4.63;4.23;;;14.40;63.30;;;;;;5442472;26;20556;-79
2024/04/13 00:11:08;;;;;;;6.23;4.67;;;14.30;66.40;;;;;;5437173;26;20466;-79
2024/04/13 00:13:38;;;;;;;6.60;5.10;;;14.30;67.60;;;;;;5439123;26;20539;-79
2024/04/13 00:16:07;;;;;;;6.20;4.70;;;14.30;69.70;;;;;;5430992;26;20455;-79
2024/04/13 00:18:40;;;;;;;4.60;4.30;;;14.30;69.30;;;;;;5433618;26;20510;-76
2024/04/13 00:21:08;;;;;;;4.87;4.53;;;14.30;72.60;;;;;;5439777;26;21133;-77
2024/04/13 00:23:38;;;;;;;7.13;4.50;;;14.10;72.70;;;;;;5429786;26;20596;-77
2024/04/13 00:26:06;;;;;;;5.00;4.50;;;14.10;73.40;;;;;;5432013;26;20487;-79
2024/04/13 00:28:36;;;;;;;5.17;4.40;;;14.10;74.20;;;;;;5431766;26;20485;-81
2024/04/13 00:31:04;;;;;;;5.03;4.30;;;14.00;71.70;;;;;;5440396;26;20542;-78
2024/04/13 00:33:40;;;;;;;5.63;4.20;;;14.10;71.80;;;;;;5434628;26;20979;-79
2024/04/13 00:36:08;;;;;;;6.97;4.97;;;14.10;72.50;;;;;;5443660;26;20454;-78
2024/04/13 00:38:38;;;;;;;4.50;4.20;;;14.00;69.70;;;;;;5433756;26;21513;-79
2024/04/13 00:41:05;;;;;;;6.77;4.23;;;14.00;70.60;;;;;;5436663;26;20468;-79
2024/04/13 00:43:36;;;;;;;6.37;4.83;;;14.00;73.20;;;;;;5437780;26;20457;-78
2024/04/13 00:46:07;;;;;;;5.50;5.00;;;14.00;73.00;;;;;;5433811;26;20516;-78
2024/04/13 00:48:42;;;;;;;5.87;5.00;;;14.00;71.70;;;;;;5426963;26;20519;-77
2024/04/13 00:51:12;;;;;;;8.97;5.57;;;14.00;71.90;;;;;;5433876;26;20463;-77
2024/04/13 00:53:43;;;;;;;4.50;4.20;;;13.90;72.50;;;;;;5439738;26;20456;-75
2024/04/13 00:56:11;;;;;;;6.80;4.70;;;13.90;91.20;;;;;;5433893;26;20497;-76
2024/04/13 00:58:43;;;;;;;4.77;4.47;;;13.90;74.90;;;;;;5441082;26;20585;-75
2024/04/13 01:01:13;;;;;;;7.13;5.17;;;13.90;77.00;;;;;;5431193;26;20860;-79
2024/04/13 01:03:46;;;;;;;4.93;4.50;;;13.90;76.10;;;;;;5438693;26;20482;-76
2024/04/13 01:06:14;;;;;;;5.43;4.43;;;13.80;73.90;;;;;;5435140;26;20583;-78
2024/04/13 01:08:44;;;;;;;5.30;4.80;;;13.80;74.60;;;;;;5433802;26;20890;-79
2024/04/13 01:11:12;;;;;;;5.10;4.70;;;13.70;75.10;;;;;;5431069;26;20514;-78
2024/04/13 01:13:43;;;;;;;5.10;4.70;;;13.80;76.00;;;;;;5432846;26;20463;-75
2024/04/13 01:16:10;;;;;;;5.83;5.33;;;13.80;76.30;;;;;;5435541;26;20455;-78
2024/04/13 01:18:41;;;;;;;6.40;5.80;;;13.80;76.50;;;;;;5431602;26;20550;-78
2024/04/13 01:21:12;;;;;;;5.60;5.00;;;13.70;77.40;;;;;;5434329;26;20572;-76
2024/04/13 01:23:47;;;;;;;5.73;5.23;;;13.70;76.90;;;;;;5434934;26;20467;-77
2024/04/13 01:26:18;;;;;;;7.07;5.67;;;13.70;78.80;;;;;;5438112;26;20523;-76
2024/04/13 01:28:48;;;;;;;5.83;5.33;;;13.60;77.70;;;;;;5434845;26;20519;-75
2024/04/13 01:31:16;;;;;;;5.47;4.97;;;13.70;82.00;;;;;;5436764;26;20473;-78
2024/04/13 01:33:46;;;;;;;5.73;5.17;;;13.60;84.10;;;;;;5434293;26;20843;-77
2024/04/13 01:36:13;;;;;;;6.50;4.97;;;13.50;84.90;;;;;;5430927;26;20470;-77
2024/04/13 01:38:43;;;;;;;6.30;4.37;;;13.50;86.00;;;;;;5428837;26;20472;-78
2024/04/13 01:41:10;;;;;;;5.30;4.80;;;13.50;96.30;;;;;;5433575;26;21155;-76
2024/04/13 01:43:43;;;;;;;6.07;5.20;;;13.50;87.50;;;;;;5434106;26;20593;-77
2024/04/13 01:46:10;;;;;;;6.50;4.93;;;13.50;87.60;;;;;;5432378;26;20458;-74
2024/04/13 01:48:40;;;;;;;4.93;4.47;;;13.50;90.40;;;;;;5437470;26;20461;-77
2024/04/13 01:51:07;;;;;;;6.00;5.40;;;13.40;90.00;;;;;;5430542;26;20887;-74
2024/04/13 01:53:37;;;;;;;5.40;4.60;;;13.30;89.90;;;;;;5437655;26;20484;-75
2024/04/13 01:56:05;;;;;;;5.80;5.30;;;13.40;88.60;;;;;;5432352;26;20485;-76
2024/04/13 01:58:35;;;;;;;6.03;5.43;;;13.40;90.60;;;;;;5436361;26;20540;-79
2024/04/13 02:01:06;;;;;;;6.20;5.50;;;13.40;92.70;;;;;;5438370;26;20530;-78
2024/04/13 02:03:37;;;;;;;5.50;5.00;;;13.30;93.10;;;;;;5435263;26;20847;-76
2024/04/13 02:06:06;;;;;;;5.73;5.10;;;13.30;92.70;;;;;;5443442;26;20475;-80
2024/04/13 02:08:36;;;;;;;6.03;4.57;;;13.30;93.00;;;;;;5438381;26;20562;-76
2024/04/13 02:11:06;;;;;;;6.30;4.80;;;13.40;92.70;;;;;;5431139;26;20521;-78
2024/04/13 02:13:36;;;;;;;4.60;4.20;;;13.40;92.50;;;;;;5437724;26;20508;-76
2024/04/13 02:16:06;;;;;;;5.17;4.53;;;13.30;92.30;;;;;;5444121;26;21125;-76
2024/04/13 02:18:37;;;;;;;5.07;4.67;;;13.30;93.30;;;;;;5436851;26;20522;-78
2024/04/13 02:21:05;;;;;;;5.57;4.80;;;13.30;92.50;;;;;;5434228;26;20462;-77
2024/04/13 02:23:36;;;;;;;6.17;4.90;;;13.30;93.20;;;;;;5441010;26;20473;-77
2024/04/13 02:26:03;;;;;;;4.50;4.10;;;13.30;93.50;;;;;;5449980;26;20470;-75
2024/04/13 02:28:34;;;;;;;8.77;5.30;;;13.30;93.20;;;;;;5440031;26;21323;-76
2024/04/13 02:31:02;;;;;;;4.13;3.83;;;13.30;92.60;;;;;;5436794;26;20479;-76
2024/04/13 02:33:35;;;;;;;5.73;5.23;;;13.20;99.90;;;;;;5436965;26;20545;-75
2024/04/13 02:36:04;;;;;;;4.37;3.97;;;13.20;93.00;;;;;;5442508;26;20596;-79
2024/04/13 02:38:34;;;;;;;6.93;3.93;;;13.20;92.60;;;;;;5439370;26;20474;-75
2024/04/13 02:41:03;;;;;;;4.63;3.97;;;13.20;92.90;;;;;;5445766;26;20595;-76
2024/04/13 02:43:35;;;;;;;4.73;4.20;;;13.20;94.90;;;;;;5442537;26;20521;-79
2024/04/13 02:46:04;;;;;;;3.40;3.20;;;13.20;93.30;;;;;;5429206;26;21426;-75
2024/04/13 02:48:37;;;;;;;3.97;3.63;;;13.20;92.40;;;;;;5437044;26;20824;-77
2024/04/13 02:51:05;;;;;;;3.90;3.43;;;13.10;99.90;;;;;;5437699;26;20476;-77
2024/04/13 02:53:36;;;;;;;3.83;3.50;;;13.10;93.10;;;;;;5433420;26;20497;-78
2024/04/13 02:56:05;;;;;;;6.37;3.90;;;13.20;91.70;;;;;;5437950;26;20525;-77
2024/04/13 02:58:34;;;;;;;7.60;3.97;;;13.20;92.80;;;;;;5435442;26;20557;-77
2024/04/13 03:01:03;;;;;;;4.93;4.17;;;13.10;93.10;;;;;;5430297;26;20906;-78
2024/04/13 03:03:33;;;;;;;4.97;4.60;;;13.10;99.90;;;;;;5435638;26;20468;-78
2024/04/13 03:06:04;;;;;;;4.23;3.93;;;13.10;95.00;;;;;;5431348;26;20614;-76
2024/04/13 03:08:34;;;;;;;5.10;4.70;;;13.10;97.00;;;;;;5435001;26;20564;-77
2024/04/13 03:11:02;;;;;;;5.80;4.93;;;13.10;97.10;;;;;;5448342;26;21058;-77
2024/04/13 03:13:32;;;;;;;4.43;4.13;;;13.20;97.10;;;;;;5437113;26;20465;-78
2024/04/13 03:16:02;;;;;;;4.60;4.30;;;13.10;97.20;;;;;;5432326;26;20468;-75
2024/04/13 03:18:32;;;;;;;4.90;3.67;;;13.10;97.20;;;;;;5440432;26;20908;-79
2024/04/13 03:21:02;;;;;;;5.00;4.57;;;13.00;99.90;;;;;;5437743;26;21241;-78
2024/04/13 03:23:35;;;;;;;4.63;4.10;;;12.90;97.30;;;;;;5431224;26;20485;-76
2024/04/13 03:26:03;;;;;;;4.00;3.70;;;12.90;97.50;;;;;;5439716;26;20467;-78
2024/04/13 03:28:35;;;;;;;3.90;3.70;;;12.80;98.50;;;;;;5440707;26;20493;-79
2024/04/13 03:31:04;;;;;;;3.90;3.67;;;12.80;98.10;;;;;;5434844;26;20580;-74
2024/04/13 03:33:34;;;;;;;3.93;3.63;;;12.70;97.80;;;;;;5436131;26;20482;-76
2024/04/13 03:36:05;;;;;;;5.13;4.40;;;12.70;99.90;;;;;;5442603;26;20495;-74
2024/04/13 03:38:36;;;;;;;4.00;3.67;;;12.70;99.90;;;;;;5434887;26;20457;-77
2024/04/13 03:41:08;;;;;;;3.70;3.40;;;12.70;99.90;;;;;;5431399;26;21230;-77
2024/04/13 03:43:37;;;;;;;3.73;3.43;;;12.70;99.90;;;;;;5436017;26;20471;-75
2024/04/13 03:46:09;;;;;;;3.00;2.90;;;12.70;99.90;;;;;;5441793;26;23195;-78
2024/04/13 03:48:41;;;;;;;5.10;4.10;;;12.70;99.50;;;;;;5435749;26;20501;-76
2024/04/13 03:51:13;;;;;;;3.50;3.20;;;12.70;99.90;;;;;;5437579;26;20342;-77
2024/04/13 03:53:43;;;;;;;4.30;4.00;;;12.70;99.90;;;;;;5441227;26;20279;-76
2024/04/13 03:56:11;;;;;;;4.03;3.70;;;12.70;99.90;;;;;;5448452;26;20462;-76
2024/04/13 03:58:41;;;;;;;3.70;3.40;;;12.70;99.90;;;;;;5439704;26;20527;-79
2024/04/13 04:01:08;;;;;;;3.60;3.30;;;12.60;99.90;;;;;;5431906;26;20471;-73
2024/04/13 04:03:38;;;;;;;3.53;3.23;;;12.60;99.90;;;;;;5438128;26;20545;-77
2024/04/13 04:06:06;;;;;;;3.83;3.60;;;12.60;99.90;;;;;;5430606;26;20486;-77
2024/04/13 04:08:39;;;;;;;5.37;4.03;;;12.60;99.90;;;;;;5434188;26;20458;-79
2024/04/13 04:11:06;;;;;;;4.27;3.77;;;12.70;99.90;;;;;;5437577;26;20471;-76
2024/04/13 04:13:36;;;;;;;6.77;3.80;;;12.60;99.90;;;;;;5434965;26;20484;-77
2024/04/13 04:16:03;;;;;;;4.10;3.43;;;12.60;99.90;;;;;;5433716;26;21216;-77
2024/04/13 04:18:33;;;;;;;5.00;4.13;;;12.60;99.90;;;;;;5436611;26;20466;-77
2024/04/13 04:21:01;;;;;;;4.57;3.60;;;12.60;99.90;;;;;;5437962;26;20469;-78
2024/04/13 04:23:32;;;;;;;8.23;4.10;;;12.60;99.90;;;;;;5434264;26;20597;-76
2024/04/13 04:26:02;;;;;;;4.97;3.50;;;12.60;99.90;;;;;;5436985;26;20482;-76
2024/04/13 04:28:32;;;;;;;4.03;3.73;;;12.60;99.90;;;;;;5433188;26;20570;-77
2024/04/13 04:31:13;;;;;;;4.67;4.27;;;12.60;99.90;;;;;;5435914;26;20469;-74
2024/04/13 04:33:41;;;;;;;4.30;4.00;;;12.50;99.90;;;;;;5434414;26;20522;-77
2024/04/13 04:36:12;;;;;;;5.10;4.60;;;12.60;99.90;;;;;;5433326;26;20482;-76
2024/04/13 04:38:39;;;;;;;3.93;3.63;;;12.60;99.90;;;;;;5435721;26;20459;-76
2024/04/13 04:41:12;;;;;;;4.27;3.97;;;12.50;99.90;;;;;;5436907;26;20464;-79
2024/04/13 04:43:39;;;;;;;5.27;4.77;;;12.50;99.90;;;;;;5439300;26;20544;-77
2024/04/13 04:46:10;;;;;;;4.93;4.50;;;12.50;99.90;;;;;;5434237;26;20473;-77
2024/04/13 04:48:37;;;;;;;5.07;4.77;;;12.50;99.90;;;;;;5433763;26;20537;-77
2024/04/13 04:51:07;;;;;;;7.73;5.27;;;12.60;99.90;;;;;;5438745;26;20510;-77
2024/04/13 04:53:35;;;;;;;5.80;5.20;;;12.50;99.90;;;;;;5435554;26;20536;-77
2024/04/13 04:56:06;;;;;;;4.37;3.97;;;12.50;99.90;;;;;;5436769;26;20458;-75
2024/04/13 04:58:36;;;;;;;4.80;4.00;;;12.60;99.90;;;;;;5438942;26;20529;-78
2024/04/13 05:01:06;;;;;;;4.80;4.40;;;12.60;99.90;;;;;;5436822;26;20461;-74
2024/04/13 05:03:34;;;;;;;4.57;4.27;;;12.60;99.90;;;;;;5431530;26;20463;-77
2024/04/13 05:06:05;;;;;;;4.83;4.30;;;12.50;99.90;;;;;;5437181;26;21084;-77
2024/04/13 05:08:32;;;;;;;4.70;4.30;;;12.40;99.90;;;;;;5437524;26;20484;-77
2024/04/13 05:11:02;;;;;;;8.03;4.40;;;12.40;99.90;;;;;;5433542;26;20473;-79
2024/04/13 05:13:29;;;;;;;5.10;4.60;;;12.50;99.90;;;;;;5436102;26;20548;-78
2024/04/13 05:16:04;;;;;;;4.90;4.60;;;12.40;99.90;;;;;;5436889;26;20831;-78
2024/04/13 05:18:31;;;;;;;5.80;4.37;;;12.40;99.90;;;;;;5437162;26;20558;-78
2024/04/13 05:21:01;;;;;;;4.17;3.87;;;12.40;99.90;;;;;;5431873;26;20478;-75
2024/04/13 05:23:29;;;;;;;5.13;3.87;;;12.40;99.90;;;;;;5430712;26;21080;-76
2024/04/13 05:25:59;;;;;;;4.83;4.43;;;12.40;99.90;;;;;;5445685;26;21192;-78
2024/04/13 05:28:26;;;;;;;5.03;4.63;;;12.40;99.90;;;;;;5435614;26;20480;-76
2024/04/13 05:31:01;;;;;;;4.10;3.80;;;12.40;99.90;;;;;;5436461;26;20532;-75
2024/04/13 05:33:31;;;;;;;4.83;4.40;;;12.40;99.90;;;;;;5430990;26;20493;-78
2024/04/13 05:36:02;;;;;;;5.70;4.43;;;12.50;99.90;;;;;;5430098;26;20513;-77
2024/04/13 05:38:31;;;;;;;5.70;5.10;;;12.50;99.90;;;;;;5436079;26;20467;-78
2024/04/13 05:41:01;;;;;;;4.87;4.57;;;12.50;99.90;;;;;;5433850;26;20516;-76
2024/04/13 05:43:29;;;;;;;6.70;5.50;;;12.50;99.90;;;;;;5432188;26;20481;-77
2024/04/13 05:45:59;;;;;;;7.50;5.30;;;12.60;99.90;;;;;;5438046;26;20468;-75
2024/04/13 05:48:26;;;;;;;5.07;4.77;;;12.50;99.90;;;;;;5433432;26;20507;-78
2024/04/13 05:51:02;;;;;;;6.13;4.80;;;12.60;99.90;;;;;;5437760;26;20519;-75
2024/04/13 05:53:29;;;;;;;5.20;4.37;;;12.70;99.90;;;;;;5431151;26;20472;-76
2024/04/13 05:55:59;;;;;;;5.13;4.67;;;12.70;99.90;;;;;;5427660;26;21068;-75
2024/04/13 05:58:26;;;;;;;5.90;5.03;;;12.80;99.90;;;;;;5425695;26;20530;-75
2024/04/13 06:00:56;;;;;;;4.33;4.03;;;12.90;99.90;;;;;;5429735;26;20472;-76
2024/04/13 06:03:23;;;;;;;4.77;4.47;;;13.10;99.90;;;;;;5426758;26;20524;-76
2024/04/13 06:05:53;;;;;;;5.27;4.77;;;13.30;99.90;;;;;;5428559;26;21069;-77
2024/04/13 06:08:23;;;;;;;5.53;5.13;;;13.60;99.90;;;;;;5432903;26;20484;-74
2024/04/13 06:10:54;;;;;;;5.77;5.33;;;13.90;99.90;;;;;;5439247;26;21046;-74
2024/04/13 06:13:22;;;;;;;5.50;5.00;;;14.20;99.90;;;;;;5421375;26;20450;-75
2024/04/13 06:15:52;;;;;;;7.00;4.33;;;14.50;99.90;;;;;;5427895;26;20464;-77
2024/04/13 06:18:19;;;;;;;5.80;5.30;;;14.80;99.90;;;;;;5431049;26;20892;-77
2024/04/13 06:20:49;;;;;;;6.03;4.47;;;15.00;99.90;;;;;;5424329;26;21468;-75
2024/04/13 06:23:17;;;;;;;4.50;4.10;;;15.20;99.90;;;;;;5428065;26;20512;-76
2024/04/13 06:25:51;;;;;;;5.07;4.60;;;15.40;99.90;;;;;;5431103;26;20599;-75
2024/04/13 06:28:20;;;;;;;7.10;5.10;;;15.60;99.90;;;;;;5431115;26;20530;-75
2024/04/13 06:30:51;;;;;;;5.80;4.70;;;15.80;99.90;;;;;;5429717;26;20503;-78
2024/04/13 06:33:19;;;;;;;5.00;4.60;;;16.00;99.90;;;;;;5429305;26;20452;-76
2024/04/13 06:35:50;;;;;;;5.70;5.20;;;15.90;99.10;;;;;;5434800;26;20878;-75
2024/04/13 06:38:23;;;;;;;5.93;5.20;;;15.90;98.70;;;;;;5429226;26;21133;-75
2024/04/13 06:40:57;;;;;;;4.40;4.00;;;15.90;98.50;;;;;;5431756;26;20572;-76
2024/04/13 06:43:24;;;;;;;5.97;5.43;;;15.90;99.90;;;;;;5436955;26;20474;-78
2024/04/13 06:45:54;;;;;;;5.43;4.30;;;16.00;98.80;;;;;;5427717;26;20532;-76
2024/04/13 06:48:21;;;;;;;5.03;4.73;;;16.10;98.60;;;;;;5431998;26;20541;-75
2024/04/13 06:50:51;;;;;;;6.17;5.00;;;16.20;97.20;;;;;;5434161;26;20518;-75
2024/04/13 06:53:20;;;;;;;5.17;4.70;;;16.30;96.10;;;;;;5436823;26;20484;-75
2024/04/13 06:55:49;;;;;;;4.13;3.73;;;16.40;97.90;;;;;;5436376;26;20590;-75
2024/04/13 06:58:23;;;;;;;4.77;4.40;;;16.50;97.90;;;;;;5432740;26;20472;-77
2024/04/13 07:00:57;;;;;;;4.50;4.10;;;16.60;98.50;;;;;;5435595;26;20534;-78
2024/04/13 07:03:25;;;;;;;3.97;3.67;;;16.70;97.20;;;;;;5430005;26;20887;-76
2024/04/13 07:05:59;;;;;;;7.57;4.23;;;16.80;97.40;;;;;;5435455;26;20468;-74
2024/04/13 07:08:27;;;;;;;6.40;4.10;;;16.90;97.20;;;;;;5439122;26;20459;-75
2024/04/13 07:10:58;;;;;;;3.53;3.33;;;17.00;96.10;;;;;;5430204;26;20534;-76
2024/04/13 07:13:28;;;;;;;4.60;3.63;;;17.00;96.60;;;;;;5433240;26;21680;-76
2024/04/13 07:15:58;;;;;;;6.33;4.80;;;17.10;97.50;;;;;;5432885;26;20473;-78
2024/04/13 07:18:26;;;;;;;6.10;3.70;;;17.30;98.40;;;;;;5425755;26;20522;-80
2024/04/13 07:20:56;;;;;;;3.90;3.60;;;17.30;99.90;;;;;;5432226;26;21192;-79
2024/04/13 07:23:23;;;;;;;3.97;3.50;;;17.40;97.20;;;;;;5431540;26;20525;-76
2024/04/13 07:25:59;;;;;;;3.40;3.20;;;17.50;98.40;;;;;;5434495;26;20465;-76
2024/04/13 07:28:31;;;;;;;4.50;4.10;;;17.60;97.60;;;;;;5427733;26;20483;-77
2024/04/13 07:31:02;;;;;;;3.60;3.30;;;17.70;99.40;;;;;;5427844;26;20545;-79
2024/04/13 07:33:29;;;;;;;4.07;3.77;;;17.80;99.70;;;;;;5434633;26;20474;-78
2024/04/13 07:35:59;;;;;;;3.77;3.47;;;17.90;99.50;;;;;;5431578;26;20477;-76
2024/04/13 07:38:27;;;;;;;5.40;4.30;;;18.00;99.50;;;;;;5436503;26;20564;-78
2024/04/13 07:40:57;;;;;;;3.73;3.40;;;18.10;99.60;;;;;;5429503;26;20550;-75
2024/04/13 07:43:24;;;;;;;4.50;4.10;;;18.30;99.80;;;;;;5430701;26;20542;-76
2024/04/13 07:45:57;;;;;;;5.40;4.03;;;18.40;99.90;;;;;;5436532;26;20529;-76
2024/04/13 07:48:24;;;;;;;5.77;4.37;;;18.40;99.80;;;;;;5431928;26;20482;-77
2024/04/13 07:50:55;;;;;;;6.53;4.17;;;18.40;99.90;;;;;;5432503;26;20464;-80
2024/04/13 07:53:23;;;;;;;4.40;4.07;;;18.50;99.80;;;;;;5433854;26;20519;-73
2024/04/13 07:55:53;;;;;;;3.93;3.43;;;18.40;98.30;;;;;;5431273;26;21465;-76
2024/04/13 07:58:20;;;;;;;5.03;4.00;;;18.30;99.30;;;;;;5430151;26;20459;-77
2024/04/13 08:00:50;;;;;;;3.97;3.60;;;18.40;99.90;;;;;;5428415;26;20571;-75
2024/04/13 08:03:21;;;;;;;3.60;3.30;;;18.40;99.90;;;;;;5436069;26;20589;-74
2024/04/13 08:05:51;;;;;;;3.77;3.40;;;18.50;99.80;;;;;;5433155;26;20480;-76
2024/04/13 08:08:19;;;;;;;3.03;2.70;;;18.50;99.80;;;;;;5430196;26;21101;-78
2024/04/13 08:10:48;;;;;;;3.80;3.50;;;18.60;99.90;;;;;;5435959;26;20467;-73
2024/04/13 08:13:16;;;;;;;4.03;3.70;;;18.60;99.90;;;;;;5437374;26;20478;-76
2024/04/13 08:15:46;;;;;;;3.87;3.57;;;18.70;99.90;;;;;;5432593;26;20525;-75
2024/04/13 08:18:14;;;;;;;4.50;4.07;;;18.70;99.90;;;;;;5434991;26;20464;-73
2024/04/13 08:20:47;;;;;;;5.70;3.03;;;18.80;99.90;;;;;;5434993;26;20459;-74
2024/04/13 08:23:15;;;;;;;5.00;2.93;;;18.80;99.90;;;;;;5431694;26;20545;-73
2024/04/13 08:25:45;;;;;;;3.43;3.23;;;18.90;99.90;;;;;;5430271;26;20463;-73
2024/04/13 08:28:12;;;;;;;5.67;3.10;;;18.90;99.90;;;;;;5430377;26;20472;-75
2024/04/13 08:30:43;;;;;;;4.23;2.53;;;19.00;99.90;;;;;;5431616;26;20464;-76
2024/04/13 08:33:10;;;;;;;2.57;2.47;;;19.10;99.90;;;;;;5429956;26;21102;-77
2024/04/13 08:35:41;;;;;;;2.83;2.53;;;19.10;99.90;;;;;;5429467;26;20470;-73
2024/04/13 08:38:11;;;;;;;2.33;1.73;;;19.20;99.90;;;;;;5430220;26;20797;-76
2024/04/13 08:40:45;;;;;;;2.70;2.50;;;19.30;99.90;;;;;;5427179;26;20519;-74
2024/04/13 08:43:14;;;;;;;2.03;1.90;;;19.30;99.90;;;;;;5428366;26;20467;-73
2024/04/13 08:45:44;;;;;;;4.73;2.20;;;19.30;99.90;;;;;;5434331;26;20594;-74
2024/04/13 08:48:11;;;;;;;2.30;1.80;;;19.40;99.90;;;;;;5427671;26;20545;-76
2024/04/13 08:50:44;;;;;;;2.00;1.90;;;19.40;99.90;;;;;;5437089;26;20572;-77
2024/04/13 08:53:17;;;;;;;2.60;2.40;;;19.50;99.90;;;;;;5433027;26;20602;-76
2024/04/13 08:55:48;;;;;;;4.17;1.90;;;19.50;99.90;;;;;;5435369;26;20530;-73
2024/04/13 08:58:16;;;;;;;2.30;2.20;;;19.60;99.90;;;;;;5426610;26;20474;-75
2024/04/13 09:00:52;;;;;;;2.00;1.80;;;19.60;99.90;;;;;;5434097;26;20507;-73
2024/04/13 09:03:21;;;;;;;2.47;2.27;;;19.70;99.90;;;;;;5427091;26;20523;-76
2024/04/13 09:05:52;;;;;;;1.90;1.70;;;19.70;99.90;;;;;;5436012;26;20459;-73
2024/04/13 09:08:23;;;;;;;2.13;1.80;;;19.70;99.90;;;;;;5428365;26;20513;-77
2024/04/13 09:10:56;;;;;;;2.00;1.90;;;19.80;99.90;;;;;;5431490;26;21543;-73
2024/04/13 09:13:23;;;;;;;2.10;2.00;;;19.80;99.90;;;;;;5428117;26;20470;-75
2024/04/13 09:15:53;;;;;;;3.97;2.17;;;19.70;99.90;;;;;;5428143;26;20494;-71
2024/04/13 09:18:20;;;;;;;3.13;1.83;;;19.80;99.90;;;;;;5433819;26;21255;-73
2024/04/13 09:20:51;;;;;;;3.93;1.90;;;19.90;99.90;;;;;;5425048;26;20476;-75
2024/04/13 09:23:23;;;;;;;1.90;1.80;;;19.90;99.90;;;;;;5424533;26;20474;-76
2024/04/13 09:26:00;;;;;;;2.10;1.87;;;20.00;99.90;;;;;;5432396;26;21378;-72
2024/04/13 09:28:40;;;;;;;2.00;1.80;;;20.00;99.90;;;;;;5432014;26;20514;-73
2024/04/13 09:31:09;;;;;;;4.03;1.87;;;20.10;99.90;;;;;;5428443;26;20472;-75
2024/04/13 09:33:40;;;;;;;1.53;1.43;;;20.20;99.90;;;;;;5422059;26;20564;-72
2024/04/13 09:36:08;;;;;;;1.77;1.67;;;20.20;99.90;;;;;;5429028;26;20874;-75
2024/04/13 09:38:41;;;;;;;2.60;2.00;;;20.20;99.90;;;;;;5433740;26;20515;-74
2024/04/13 09:41:08;;;;;;;4.30;2.20;;;20.20;99.90;;;;;;5419128;26;20479;-75
2024/04/13 09:43:38;;;;;;;2.00;1.90;;;20.20;99.90;;;;;;5425464;26;20458;-75
2024/04/13 09:46:06;;;;;;;2.57;1.77;;;20.30;99.90;;;;;;5424040;26;20476;-75
2024/04/13 09:48:36;;;;;;;2.30;2.10;;;20.30;99.90;;;;;;5431237;26;20524;-72
2024/04/13 09:51:04;;;;;;;4.10;2.00;;;20.30;99.90;;;;;;5428689;26;21112;-75
2024/04/13 09:53:34;;;;;;;1.90;1.80;;;20.30;99.90;;;;;;5429818;26;20541;-76
2024/04/13 09:56:05;;;;;;;2.60;2.40;;;20.30;99.90;;;;;;5431828;26;20349;-72
2024/04/13 09:58:35;;;;;;;2.00;1.90;;;20.50;99.90;;;;;;5427605;26;20482;-76
2024/04/13 10:01:03;;;;;;;2.43;2.17;;;20.60;99.90;;;;;;5422717;26;20515;-74
2024/04/13 10:03:33;;;;;;;2.33;2.20;;;20.60;99.90;;;;;;5426589;26;20445;-75
2024/04/13 10:06:02;;;;;;;2.70;2.13;;;20.70;99.90;;;;;;5425107;26;20494;-75
2024/04/13 10:08:33;;;;;;;2.40;2.10;;;20.80;99.90;;;;;;5433321;26;20738;-72
2024/04/13 10:11:04;;;;;;;3.07;2.10;;;20.80;99.90;;;;;;5433671;26;21210;-75
2024/04/13 10:13:37;;;;;;;2.50;1.90;;;20.80;99.90;;;;;;5432150;26;20479;-74
2024/04/13 10:16:06;;;;;;;4.17;1.93;;;21.00;99.90;;;;;;5427475;26;20527;-74
2024/04/13 10:18:36;;;;;;;4.30;2.10;;;21.00;99.90;;;;;;5426059;26;20565;-73
2024/04/13 10:21:05;;;;;;;1.80;1.70;;;21.00;99.90;;;;;;5423967;26;20573;-72
2024/04/13 10:23:41;;;;;;;2.13;1.77;;;21.10;99.90;;;;;;5426344;26;20873;-73
2024/04/13 10:26:11;;;;;;;4.60;2.03;;;21.10;99.90;;;;;;5433064;26;20478;-75
2024/04/13 10:28:41;;;;;;;3.30;2.10;;;21.10;99.90;;;;;;5430347;26;20466;-75
2024/04/13 10:31:17;;;;;;;2.17;1.97;;;21.10;99.90;;;;;;5428324;26;20532;-72
2024/04/13 10:33:55;;;;;;;2.23;2.03;;;21.20;99.90;;;;;;5430975;26;20592;-74
2024/04/13 10:36:27;;;;;;;3.03;2.40;;;21.20;99.90;;;;;;5426294;26;20552;-71
2024/04/13 10:38:58;;;;;;;2.33;2.13;;;21.20;99.90;;;;;;5432238;26;20478;-72
2024/04/13 10:41:32;;;;;;;2.43;1.80;;;21.30;99.90;;;;;;5426800;26;20562;-73
2024/04/13 10:44:04;;;;;;;3.70;2.00;;;21.30;99.90;;;;;;5429530;26;20503;-73
2024/04/13 10:46:33;;;;;;;2.83;1.40;;;21.30;99.90;;;;;;5429190;26;22820;-74
2024/04/13 10:49:03;;;;;;;1.87;1.50;;;21.40;99.90;;;;;;5433975;26;21534;-75
2024/04/13 10:51:31;;;;;;;1.70;1.60;;;21.50;99.90;;;;;;5435582;26;20594;-73
2024/04/13 10:54:01;;;;;;;2.83;1.40;;;21.50;99.90;;;;;;5428108;26;20522;-74
2024/04/13 10:56:31;;;;;;;1.70;1.60;;;21.50;99.90;;;;;;5436323;26;20532;-72
2024/04/13 10:59:01;;;;;;;1.60;1.50;;;21.50;99.90;;;;;;5428266;26;20523;-74
2024/04/13 11:01:28;;;;;;;1.40;1.30;;;21.50;99.90;;;;;;5430222;26;20464;-75
2024/04/13 11:04:06;;;;;;;1.50;1.40;;;21.50;99.90;;;;;;5424514;26;21114;-76
2024/04/13 11:06:34;;;;;;;1.53;1.37;;;21.50;99.90;;;;;;5427301;26;20490;-73
2024/04/13 11:09:04;;;;;;;1.80;1.60;;;21.50;99.90;;;;;;5428780;26;20493;-72
2024/04/13 11:11:34;;;;;;;2.30;1.60;;;21.50;99.90;;;;;;5426519;26;20529;-73
2024/04/13 11:14:04;;;;;;;1.40;1.30;;;21.60;99.90;;;;;;5430932;26;20483;-74
2024/04/13 11:16:31;;;;;;;4.57;1.50;;;21.60;99.90;;;;;;5427478;26;21243;-74
2024/04/13 11:19:02;;;;;;;1.50;1.40;;;21.60;99.90;;;;;;5427488;26;20460;-72
2024/04/13 11:21:30;;;;;;;1.57;1.47;;;21.60;99.90;;;;;;5426964;26;20531;-73
2024/04/13 11:24:01;;;;;;;1.47;1.37;;;21.70;99.90;;;;;;5432753;26;20451;-74
2024/04/13 11:26:31;;;;;;;2.27;2.07;;;21.70;99.90;;;;;;5427977;26;20859;-75
2024/04/13 11:29:04;;;;;;;1.77;1.67;;;21.70;99.90;;;;;;5424066;26;20455;-74
2024/04/13 11:31:31;;;;;;;1.60;1.50;;;21.80;99.90;;;;;;5430516;26;20850;-74
2024/04/13 11:34:01;;;;;;;2.00;1.60;;;21.80;99.90;;;;;;5433635;26;20537;-77
2024/04/13 11:36:28;;;;;;;1.97;1.77;;;21.90;99.90;;;;;;5427239;26;20479;-77
2024/04/13 11:38:58;;;;;;;1.80;1.70;;;21.90;99.90;;;;;;5436936;26;21746;-76
2024/04/13 11:41:26;;;;;;;1.60;1.50;;;21.90;99.90;;;;;;5432810;26;20462;-77
2024/04/13 11:43:56;;;;;;;1.80;1.40;;;22.00;99.90;;;;;;5432034;26;20608;-77
2024/04/13 11:46:26;;;;;;;1.90;1.50;;;22.00;99.90;;;;;;5432784;26;20458;-76
2024/04/13 11:48:57;;;;;;;2.30;1.50;;;22.00;99.90;;;;;;5427220;26;20479;-78
2024/04/13 11:51:24;;;;;;;1.47;1.37;;;22.10;99.90;;;;;;5431516;26;20478;-74
2024/04/13 11:53:54;;;;;;;3.33;1.50;;;22.20;99.90;;;;;;5432852;26;20591;-75
2024/04/13 11:56:22;;;;;;;2.20;1.40;;;22.10;99.90;;;;;;5427121;26;20467;-76
2024/04/13 11:58:53;;;;;;;2.03;1.40;;;22.30;99.90;;;;;;5439447;26;20538;-76
2024/04/13 12:01:21;;;;;;;2.00;1.50;;;22.30;99.90;;;;;;5432559;26;20469;-77
2024/04/13 12:03:53;;;;;;;1.50;1.40;;;22.30;99.90;;;;;;5422443;26;20556;-77
2024/04/13 12:06:21;;;;;;;1.67;1.57;;;22.30;99.90;;;;;;5434607;26;20471;-74
2024/04/13 12:08:51;;;;;;;1.57;1.47;;;22.40;99.90;;;;;;5431831;26;20484;-79
2024/04/13 12:11:21;;;;;;;2.30;1.30;;;22.30;99.90;;;;;;5435570;26;20627;-80
2024/04/13 12:13:48;;;;;;;1.60;1.50;;;22.40;99.90;;;;;;5435658;26;21036;-77
2024/04/13 12:16:18;;;;;;;1.37;1.20;;;22.40;99.90;;;;;;5431335;26;20478;-75
2024/04/13 12:18:45;;;;;;;2.90;1.60;;;22.40;99.90;;;;;;5432768;26;20464;-76
2024/04/13 12:21:18;;;;;;;1.47;1.20;;;22.40;99.90;;;;;;5434850;26;20692;-77
2024/04/13 12:23:45;;;;;;;1.30;1.20;;;22.40;99.90;;;;;;5430523;26;20476;-77
2024/04/13 12:26:15;;;;;;;1.80;1.40;;;22.40;99.90;;;;;;5427374;26;20452;-78
2024/04/13 12:28:43;;;;;;;1.87;1.50;;;22.50;99.90;;;;;;5431896;26;20520;-76
2024/04/13 12:31:14;;;;;;;4.83;1.57;;;22.50;99.90;;;;;;5422592;26;21027;-77
2024/04/13 12:33:42;;;;;;;2.57;1.70;;;22.50;99.90;;;;;;5432252;26;20507;-76
2024/04/13 12:36:12;;;;;;;1.40;1.30;;;22.50;99.90;;;;;;5441250;26;20468;-76
2024/04/13 12:38:43;;;;;;;2.23;1.47;;;22.50;99.90;;;;;;5428954;26;20471;-78
2024/04/13 12:41:13;;;;;;;2.00;1.80;;;22.50;99.90;;;;;;5433219;26;20524;-77
2024/04/13 12:43:40;;;;;;;2.70;1.40;;;22.50;99.90;;;;;;5436014;26;21282;-76
2024/04/13 12:46:10;;;;;;;2.40;1.43;;;22.50;99.90;;;;;;5426931;26;20522;-75
2024/04/13 12:48:38;;;;;;;1.40;1.30;;;22.60;99.90;;;;;;5428995;26;20476;-76
2024/04/13 12:51:08;;;;;;;2.93;1.70;;;22.60;99.90;;;;;;5428998;26;20500;-74
2024/04/13 12:53:35;;;;;;;3.10;1.70;;;22.60;99.90;;;;;;5430201;26;20513;-76
2024/04/13 12:56:09;;;;;;;4.10;2.37;;;22.60;99.90;;;;;;5430469;26;20577;-75
2024/04/13 12:58:36;;;;;;;1.53;1.30;;;22.60;99.90;;;;;;5431862;26;20528;-76
2024/04/13 13:01:06;;;;;;;2.10;1.27;;;22.70;99.90;;;;;;5430835;26;20490;-74